Time;durP1;ratioP1;P1;durP2;ratioP2;P2;SDS_P1;SDS_P2;PMS_P1;PMS_P2;Temp;Humidity;BMP_temperature;BMP_pressure;BME280_temperature;BME280_humidity;BME280_pressure;Samples;Min_cycle;Max_cycle;Signal;HPM_P1;HPM_P2
2022/12/29 00:01:31;;;;;;;12.37;11.63;;;;;;;7.10;94.95;96325.91;4973497;28;20701;-77
2022/12/29 00:03:56;;;;;;;12.23;11.43;;;;;;;7.11;95.20;96324.09;4958672;28;20184;-78
2022/12/29 00:06:21;;;;;;;12.73;11.87;;;;;;;7.23;94.91;96316.38;4975902;28;20204;-77
2022/12/29 00:08:47;;;;;;;14.10;13.20;;;;;;;7.09;95.75;96323.50;4975842;28;20234;-78
2022/12/29 00:11:18;;;;;;;12.43;11.47;;;;;;;7.16;95.15;96321.66;4978785;28;20188;-78
2022/12/29 00:16:29;;;;;;;12.23;11.50;;;;;;;7.25;94.90;96316.94;4976085;28;20248;-78
2022/12/29 00:18:54;;;;;;;14.00;12.93;;;;;;;7.26;94.67;96305.50;4975169;28;20659;-77
2022/12/29 00:35:25;;;;;;;9.20;8.67;;;;;;;7.36;93.69;96277.09;4975701;28;20300;-78
2022/12/29 00:46:04;;;;;;;6.67;6.27;;;;;;;7.91;90.57;96276.00;4974505;28;20180;-78
2022/12/29 00:51:13;;;;;;;6.63;6.03;;;;;;;8.00;89.11;96276.50;4975391;28;20172;-77
2022/12/29 00:53:38;;;;;;;5.17;4.77;;;;;;;8.14;87.64;96275.28;4957751;28;20189;-78
2022/12/29 00:56:04;;;;;;;6.00;5.50;;;;;;;8.16;88.27;96275.84;4974570;28;20228;-77
2022/12/29 00:58:30;;;;;;;6.30;5.90;;;;;;;8.24;87.71;96285.19;4974771;28;20193;-78
2022/12/29 01:01:03;;;;;;;6.47;6.07;;;;;;;8.28;87.86;96283.72;4973414;28;20201;-78
2022/12/29 01:03:28;;;;;;;6.03;5.70;;;;;;;8.34;87.68;96277.63;4975334;28;20235;-78
2022/12/29 01:05:54;;;;;;;7.23;6.53;;;;;;;8.20;88.58;96279.59;4974880;28;20180;-77
2022/12/29 01:08:19;;;;;;;6.47;5.87;;;;;;;8.18;88.90;96283.47;4957555;28;20208;-77
2022/12/29 01:10:44;;;;;;;7.97;7.17;;;;;;;8.14;88.95;96282.31;4975377;28;20188;-77
2022/12/29 01:13:10;;;;;;;6.33;6.00;;;;;;;8.19;88.17;96283.22;4974805;28;20533;-77
2022/12/29 01:15:35;;;;;;;7.63;7.07;;;;;;;8.19;88.40;96283.22;4975250;28;20576;-78
2022/12/29 01:18:00;;;;;;;6.20;5.60;;;;;;;8.33;87.20;96292.50;4974218;28;20204;-77
2022/12/29 01:20:28;;;;;;;5.53;5.20;;;;;;;8.38;87.13;96293.63;4975062;28;20559;-78
2022/12/29 01:22:53;;;;;;;5.63;5.33;;;;;;;8.47;86.23;96287.06;4974853;28;20227;-78
2022/12/29 01:25:18;;;;;;;5.33;5.03;;;;;;;8.47;85.81;96289.69;4956401;28;20184;-78
2022/12/29 01:27:44;;;;;;;6.30;5.90;;;;;;;8.57;85.49;96289.91;4974865;28;20200;-78
2022/12/29 01:30:09;;;;;;;8.83;4.87;;;;;;;8.61;84.77;96294.47;4974699;28;20189;-78
2022/12/29 01:32:35;;;;;;;4.57;4.27;;;;;;;8.59;84.78;96295.69;4974957;28;20175;-78
2022/12/29 01:35:00;;;;;;;5.57;5.10;;;;;;;8.68;84.15;96289.94;4974597;28;20252;-78
2022/12/29 01:37:25;;;;;;;5.40;5.10;;;;;;;8.73;83.82;96290.03;4974133;28;20275;-78
2022/12/29 01:39:51;;;;;;;5.43;5.13;;;;;;;8.71;83.55;96288.66;4974121;28;20278;-77
2022/12/29 01:42:18;;;;;;;5.63;5.17;;;;;;;8.75;83.40;96290.59;4974247;28;20212;-77
2022/12/29 01:45:01;;;;;;;5.03;4.63;;;;;;;8.81;83.37;96286.28;4974148;28;20189;-77
2022/12/29 01:47:43;;;;;;;5.37;4.67;;;;;;;8.85;82.58;96289.25;4968398;28;20719;-77
2022/12/29 01:50:11;;;;;;;6.10;4.37;;;;;;;8.88;82.49;96291.41;4973933;28;20203;-77
2022/12/29 01:52:42;;;;;;;4.97;4.67;;;;;;;9.00;82.29;96287.75;4973935;28;20771;-78
2022/12/29 01:55:09;;;;;;;5.17;4.77;;;;;;;8.95;82.12;96290.28;4973351;28;20583;-78
2022/12/29 01:57:38;;;;;;;8.83;6.87;;;;;;;8.92;81.93;96289.91;4973982;28;20207;-77
2022/12/29 02:00:12;;;;;;;8.57;8.13;;;;;;;8.91;82.29;96285.72;4971121;28;20195;-78
2022/12/29 02:02:38;;;;;;;8.43;7.73;;;;;;;8.98;82.17;96287.19;4973940;28;20632;-78
2022/12/29 02:05:10;;;;;;;9.50;8.80;;;;;;;9.01;81.56;96281.53;4973372;28;20180;-78
2022/12/29 02:07:37;;;;;;;7.60;7.20;;;;;;;9.02;81.53;96282.31;4956455;28;20199;-77
2022/12/29 02:10:03;;;;;;;9.53;8.97;;;;;;;9.06;82.02;96286.06;4973570;28;20721;-78
2022/12/29 02:12:28;;;;;;;9.83;9.30;;;;;;;9.06;81.60;96278.22;4973833;28;20272;-78
2022/12/29 02:14:59;;;;;;;10.27;9.57;;;;;;;9.08;81.45;96274.31;4973722;28;20618;-77
2022/12/29 02:17:56;;;;;;;9.37;8.87;;;;;;;9.12;80.90;96272.88;4973361;28;20195;-77
2022/12/29 02:20:47;;;;;;;7.70;7.30;;;;;;;9.16;80.54;96265.34;4973601;28;20196;-78
2022/12/29 02:23:24;;;;;;;7.57;7.17;;;;;;;9.11;80.94;96260.81;4972972;28;20219;-78
2022/12/29 02:26:38;;;;;;;6.37;5.97;;;;;;;9.17;79.90;96264.34;4955913;28;20730;-77
2022/12/29 02:29:35;;;;;;;5.17;4.87;;;;;;;9.12;80.63;96267.63;4913929;29;20214;-77
2022/12/29 02:32:14;;;;;;;5.60;5.30;;;;;;;9.15;80.41;96263.75;4924186;28;20203;-78
2022/12/29 02:35:05;;;;;;;5.37;4.90;;;;;;;9.14;80.36;96262.97;4973703;28;20185;-78
2022/12/29 02:37:42;;;;;;;4.90;4.60;;;;;;;9.12;80.72;96261.63;4973493;28;20536;-78
2022/12/29 02:40:25;;;;;;;4.60;4.20;;;;;;;9.22;80.26;96259.19;4973887;28;20272;-77
2022/12/29 02:43:01;;;;;;;4.40;4.20;;;;;;;9.24;79.60;96258.97;4973612;28;20271;-77
2022/12/29 02:45:41;;;;;;;4.50;3.80;;;;;;;9.25;80.18;96250.13;4972878;28;20211;-77
2022/12/29 02:48:20;;;;;;;4.93;4.50;;;;;;;9.29;79.40;96256.47;4973190;28;21998;-77
2022/12/29 02:50:58;;;;;;;4.63;4.20;;;;;;;9.27;79.39;96248.84;4973355;28;20195;-77
2022/12/29 02:56:10;;;;;;;5.03;4.83;;;;;;;9.26;80.04;96242.03;4976577;28;20242;-78
2022/12/29 02:58:35;;;;;;;4.43;4.23;;;;;;;9.28;79.97;96247.81;4976107;28;20702;-77
2022/12/29 03:02:17;;;;;;;5.07;4.53;;;;;;;9.35;79.27;96256.34;4975179;28;20683;-78
2022/12/29 03:05:01;;;;;;;3.90;3.60;;;;;;;9.30;79.81;96253.63;4920059;29;20226;-78
2022/12/29 03:07:47;;;;;;;4.33;4.03;;;;;;;9.28;79.57;96250.44;4936104;29;20186;-78
2022/12/29 03:10:30;;;;;;;4.43;4.23;;;;;;;9.26;80.04;96249.06;4970299;28;20196;-79
2022/12/29 03:16:07;;;;;;;3.93;3.67;;;;;;;9.18;80.30;96250.25;4976857;28;20188;-78
2022/12/29 03:18:38;;;;;;;4.17;3.97;;;;;;;9.22;79.97;96246.13;4952336;28;20659;-78
2022/12/29 03:21:12;;;;;;;4.77;4.53;;;;;;;9.18;80.09;96250.25;4976799;28;20662;-78
2022/12/29 03:23:41;;;;;;;4.80;4.40;;;;;;;9.19;80.22;96247.38;4976978;28;20597;-78
2022/12/29 03:26:10;;;;;;;4.70;4.40;;;;;;;9.18;80.16;96240.56;4976652;28;20660;-78
2022/12/29 03:28:40;;;;;;;7.50;4.13;;;;;;;9.17;79.99;96241.59;4976412;28;20189;-78
2022/12/29 03:31:08;;;;;;;4.00;3.70;;;;;;;9.13;80.76;96235.25;4976913;28;20189;-78
2022/12/29 03:33:36;;;;;;;6.47;4.53;;;;;;;9.23;80.18;96233.84;4976970;28;20201;-78
2022/12/29 03:36:05;;;;;;;4.60;4.10;;;;;;;9.18;80.24;96224.09;4963224;28;20280;-78
2022/12/29 03:38:42;;;;;;;4.23;3.83;;;;;;;9.22;80.03;96227.81;4974669;28;20216;-78
2022/12/29 03:41:12;;;;;;;3.73;3.43;;;;;;;9.26;80.19;96220.31;4974995;28;20173;-78
2022/12/29 03:43:37;;;;;;;5.33;4.13;;;;;;;9.29;79.91;96227.69;4959378;28;20208;-78
2022/12/29 03:46:03;;;;;;;4.10;3.80;;;;;;;9.27;80.12;96227.13;4959240;28;20180;-77
2022/12/29 03:48:28;;;;;;;4.47;4.07;;;;;;;9.29;80.18;96220.66;4975952;28;20192;-78
2022/12/29 03:50:54;;;;;;;4.40;4.10;;;;;;;9.36;79.99;96208.22;4976266;28;20184;-78
2022/12/29 03:53:19;;;;;;;3.50;3.30;;;;;;;9.33;80.00;96221.78;4976233;28;20271;-78
2022/12/29 03:55:44;;;;;;;3.77;3.57;;;;;;;9.43;79.61;96200.25;4976415;28;20228;-78
2022/12/29 03:58:10;;;;;;;4.47;4.07;;;;;;;9.42;80.05;96215.13;4976217;28;20552;-78
2022/12/29 04:00:35;;;;;;;4.10;3.80;;;;;;;9.33;80.80;96208.69;4973764;28;20199;-77
2022/12/29 04:03:00;;;;;;;3.97;3.60;;;;;;;9.32;81.19;96199.25;4976209;28;20205;-78
2022/12/29 04:05:26;;;;;;;3.70;3.40;;;;;;;9.32;81.33;96203.69;4976169;28;20220;-78
2022/12/29 04:07:51;;;;;;;4.47;4.07;;;;;;;9.30;81.63;96201.31;4975511;28;20184;-78
2022/12/29 04:10:17;;;;;;;6.40;6.10;;;;;;;9.24;82.90;96217.16;4976080;28;20176;-78
2022/12/29 04:12:42;;;;;;;10.53;10.00;;;;;;;9.26;82.78;96221.09;4958251;28;20195;-78
2022/12/29 04:15:08;;;;;;;11.33;10.50;;;;;;;9.21;83.55;96212.38;4976195;28;20191;-78
2022/12/29 04:17:34;;;;;;;8.17;7.73;;;;;;;9.19;83.36;96213.38;4975183;28;20184;-78
2022/12/29 04:22:43;;;;;;;13.77;12.57;;;;;;;9.14;84.81;96221.13;4975759;28;20589;-77
2022/12/29 04:25:08;;;;;;;19.80;18.70;;;;;;;9.11;85.13;96223.41;4976314;28;20275;-77
2022/12/29 04:27:33;;;;;;;19.13;17.97;;;;;;;9.08;85.30;96235.13;4975553;28;20607;-78
2022/12/29 04:29:59;;;;;;;7.57;7.17;;;;;;;9.06;85.74;96242.41;4975513;28;20257;-78
2022/12/29 04:32:24;;;;;;;4.03;3.83;;;;;;;9.06;85.98;96241.63;4976031;28;20189;-78
2022/12/29 04:34:49;;;;;;;4.07;3.77;;;;;;;9.09;86.36;96243.75;4958188;28;20191;-78
2022/12/29 04:37:15;;;;;;;5.10;4.70;;;;;;;9.10;86.78;96238.31;4975988;28;20192;-78
2022/12/29 04:39:40;;;;;;;5.73;5.17;;;;;;;9.09;87.31;96230.69;4975834;28;20191;-78
2022/12/29 04:42:05;;;;;;;5.80;5.50;;;;;;;9.08;88.02;96219.44;4975635;28;20200;-78
2022/12/29 04:44:31;;;;;;;5.73;5.23;;;;;;;9.09;88.10;96220.22;4975044;28;20192;-78
2022/12/29 04:46:56;;;;;;;6.20;5.70;;;;;;;9.14;88.27;96215.09;4975380;28;20242;-78
2022/12/29 04:49:21;;;;;;;10.87;8.00;;;;;;;9.09;88.91;96223.66;4958202;28;20247;-78
2022/12/29 04:51:46;;;;;;;8.27;7.77;;;;;;;9.08;89.40;96219.44;4975653;28;20225;-78
2022/12/29 04:54:12;;;;;;;7.63;6.90;;;;;;;9.01;89.76;96218.78;4972278;28;20279;-78
2022/12/29 04:56:37;;;;;;;5.77;5.37;;;;;;;9.04;90.80;96226.16;4955817;29;20261;-78
2022/12/29 04:59:02;;;;;;;6.37;5.97;;;;;;;9.00;90.73;96229.47;4953774;29;20226;-78
2022/12/29 05:01:28;;;;;;;7.83;7.20;;;;;;;8.98;91.44;96221.03;4955996;29;20664;-77
2022/12/29 05:03:53;;;;;;;9.17;8.57;;;;;;;9.00;91.27;96237.31;4955771;29;20197;-77
2022/12/29 05:06:18;;;;;;;10.37;9.67;;;;;;;8.99;91.35;96228.66;4955503;29;20707;-77
2022/12/29 05:08:44;;;;;;;9.67;8.93;;;;;;;9.01;91.06;96236.28;4938669;29;20181;-78
2022/12/29 05:11:09;;;;;;;9.37;8.63;;;;;;;8.98;91.10;96241.97;4955606;29;20220;-77
2022/12/29 05:13:34;;;;;;;7.93;7.40;;;;;;;8.92;91.28;96235.81;4955493;29;20188;-78
2022/12/29 05:16:00;;;;;;;5.93;4.40;;;;;;;8.86;92.09;96228.91;4954829;28;20193;-78
2022/12/29 05:18:25;;;;;;;3.80;3.60;;;;;;;8.78;92.72;96226.66;4938051;29;20177;-78
2022/12/29 05:20:50;;;;;;;4.27;3.87;;;;;;;8.91;92.07;96221.19;4955545;29;20181;-78
2022/12/29 05:23:16;;;;;;;4.03;3.83;;;;;;;8.89;92.65;96222.44;4955486;29;20252;-78
2022/12/29 05:25:42;;;;;;;4.40;4.10;;;;;;;8.91;92.35;96223.00;4954998;29;20185;-78
2022/12/29 05:28:07;;;;;;;4.00;3.77;;;;;;;8.79;92.95;96217.78;4955136;29;20180;-78
2022/12/29 05:30:33;;;;;;;3.80;3.60;;;;;;;8.84;92.53;96211.88;4955542;29;20179;-78
2022/12/29 05:32:58;;;;;;;4.30;4.10;;;;;;;8.80;92.91;96208.94;4955559;29;20233;-78
2022/12/29 05:35:24;;;;;;;4.07;3.87;;;;;;;8.88;92.21;96208.56;4954835;29;20182;-78
2022/12/29 05:37:49;;;;;;;3.97;3.77;;;;;;;8.89;92.21;96217.22;4954921;29;20529;-78
2022/12/29 05:40:14;;;;;;;11.17;4.20;;;;;;;8.84;92.17;96225.75;4955476;29;20184;-78
2022/12/29 05:42:40;;;;;;;4.13;3.93;;;;;;;8.87;92.07;96230.50;4955201;29;20679;-78
2022/12/29 05:45:07;;;;;;;4.37;3.47;;;;;;;8.85;92.11;96227.34;4955239;29;20248;-77
2022/12/29 05:47:32;;;;;;;3.97;3.17;;;;;;;8.88;91.56;96224.25;4955171;29;20196;-77
2022/12/29 05:49:57;;;;;;;4.07;3.77;;;;;;;8.84;91.69;96209.25;4938053;29;20265;-78
2022/12/29 05:52:23;;;;;;;6.53;5.93;;;;;;;8.86;91.33;96215.06;4955089;29;20271;-78
2022/12/29 05:54:48;;;;;;;10.63;10.07;;;;;;;8.88;90.86;96207.78;4954856;28;20595;-77
2022/12/29 05:57:13;;;;;;;12.13;11.53;;;;;;;8.89;91.10;96214.59;4954553;29;20196;-78
2022/12/29 05:59:39;;;;;;;14.87;13.90;;;;;;;8.96;90.96;96215.28;4952449;29;20317;-78
2022/12/29 06:02:04;;;;;;;12.90;12.10;;;;;;;8.97;90.23;96217.63;4954434;29;20238;-78
2022/12/29 06:04:30;;;;;;;7.97;7.43;;;;;;;8.94;90.16;96209.47;4937702;29;20185;-78
2022/12/29 06:06:55;;;;;;;5.73;5.40;;;;;;;9.06;89.62;96211.03;4954522;29;20192;-78
2022/12/29 06:09:20;;;;;;;5.30;5.00;;;;;;;9.11;88.96;96212.97;4937701;29;20620;-78
2022/12/29 06:11:46;;;;;;;5.53;5.10;;;;;;;9.07;88.77;96204.81;4937517;29;20193;-78
2022/12/29 06:14:11;;;;;;;5.47;5.03;;;;;;;9.07;88.73;96201.38;4954878;29;20188;-78
2022/12/29 06:16:36;;;;;;;6.17;5.67;;;;;;;9.09;88.06;96189.66;4954018;28;20220;-78
2022/12/29 06:19:02;;;;;;;5.50;5.20;;;;;;;9.15;88.15;96193.16;4954983;29;20180;-78
2022/12/29 06:21:27;;;;;;;5.77;5.37;;;;;;;9.14;87.90;96178.50;4954603;29;20185;-78
2022/12/29 06:23:52;;;;;;;5.73;5.23;;;;;;;9.09;87.50;96187.03;4937382;29;20217;-78
2022/12/29 06:26:18;;;;;;;5.03;4.70;;;;;;;8.97;88.51;96188.13;4954100;29;20272;-78
2022/12/29 06:28:43;;;;;;;4.70;4.30;;;;;;;8.92;88.39;96194.00;4953970;29;20241;-78
2022/12/29 06:31:10;;;;;;;8.07;5.67;;;;;;;8.93;87.96;96194.81;4954421;29;20593;-78
2022/12/29 06:33:35;;;;;;;5.43;5.13;;;;;;;8.90;87.91;96188.25;4954600;29;20189;-78
2022/12/29 06:36:01;;;;;;;4.87;4.57;;;;;;;8.88;87.11;96200.72;4954612;29;20238;-77
2022/12/29 06:38:26;;;;;;;4.63;4.23;;;;;;;8.94;87.24;96204.25;4954364;29;20666;-78
2022/12/29 06:40:51;;;;;;;5.33;4.83;;;;;;;8.95;86.64;96198.00;4954207;29;20181;-78
2022/12/29 06:43:17;;;;;;;4.77;4.57;;;;;;;8.90;86.64;96200.50;4954453;29;20260;-78
2022/12/29 06:45:42;;;;;;;5.07;4.77;;;;;;;8.91;86.48;96207.34;4954586;29;20185;-78
2022/12/29 06:48:08;;;;;;;5.17;4.90;;;;;;;8.90;86.18;96205.75;4954156;29;20185;-78
2022/12/29 06:50:33;;;;;;;5.13;4.73;;;;;;;8.81;86.31;96205.28;4954577;29;20659;-77
2022/12/29 06:52:58;;;;;;;5.87;5.53;;;;;;;8.91;86.63;96205.50;4954504;29;20188;-78
2022/12/29 06:55:24;;;;;;;5.50;5.20;;;;;;;8.94;85.64;96201.63;4954149;28;20299;-77
2022/12/29 06:57:49;;;;;;;5.63;5.40;;;;;;;8.92;86.15;96204.47;4952330;29;20280;-78
2022/12/29 07:00:15;;;;;;;5.80;5.50;;;;;;;8.96;86.10;96192.56;4954458;29;20197;-77
2022/12/29 07:02:40;;;;;;;5.97;5.47;;;;;;;8.96;86.21;96186.53;4952983;29;20696;-78
2022/12/29 07:05:07;;;;;;;5.13;4.83;;;;;;;8.86;86.41;96188.94;4953052;29;20194;-78
2022/12/29 07:07:32;;;;;;;5.77;5.33;;;;;;;8.84;86.49;96199.59;4954413;29;20192;-77
2022/12/29 07:09:57;;;;;;;5.70;5.30;;;;;;;8.87;86.45;96196.53;4938465;29;20194;-76
2022/12/29 07:12:23;;;;;;;5.77;5.37;;;;;;;8.87;86.68;96201.75;4955706;29;20586;-76
2022/12/29 07:14:48;;;;;;;5.67;5.17;;;;;;;8.83;87.20;96194.59;4953746;29;20197;-76
2022/12/29 07:17:13;;;;;;;5.57;5.13;;;;;;;8.76;87.12;96185.06;4944313;28;20198;-76
2022/12/29 07:19:39;;;;;;;5.13;4.83;;;;;;;8.80;87.22;96193.25;4936729;29;20569;-76
2022/12/29 07:22:04;;;;;;;5.27;4.87;;;;;;;8.73;87.65;96200.41;4954217;29;20606;-76
2022/12/29 07:24:29;;;;;;;5.00;4.63;;;;;;;8.80;87.51;96197.69;4953879;29;20204;-75
2022/12/29 07:26:55;;;;;;;13.80;12.80;;;;;;;8.89;87.01;96191.88;4953576;29;20657;-77
2022/12/29 07:29:20;;;;;;;5.60;5.30;;;;;;;9.01;87.51;96197.88;4954041;29;20192;-75
2022/12/29 07:31:45;;;;;;;5.43;4.90;;;;;;;9.06;86.90;96197.19;4953822;29;20185;-75
2022/12/29 07:34:11;;;;;;;4.67;4.37;;;;;;;9.11;86.78;96199.91;4954031;29;21036;-75
2022/12/29 07:36:36;;;;;;;5.50;5.03;;;;;;;9.11;86.67;96202.50;4954078;29;20712;-75
2022/12/29 07:39:03;;;;;;;5.10;4.80;;;;;;;9.15;86.91;96208.84;4952941;29;20609;-76
2022/12/29 07:41:28;;;;;;;4.53;4.13;;;;;;;9.17;86.42;96212.84;4956057;28;20548;-74
2022/12/29 07:43:53;;;;;;;5.27;4.90;;;;;;;9.18;86.62;96208.41;4957239;29;20269;-74
2022/12/29 07:46:19;;;;;;;5.03;4.80;;;;;;;9.26;86.45;96212.47;4957667;29;20193;-75
2022/12/29 07:48:44;;;;;;;4.93;4.57;;;;;;;9.24;86.43;96215.31;4957157;29;20181;-75
2022/12/29 07:51:09;;;;;;;5.43;5.13;;;;;;;9.27;86.15;96214.84;4939648;29;20611;-74
2022/12/29 07:53:35;;;;;;;5.13;4.73;;;;;;;9.27;86.97;96219.28;4956530;29;20183;-76
2022/12/29 07:56:00;;;;;;;4.97;4.60;;;;;;;9.30;86.62;96222.25;4956142;28;20283;-75
2022/12/29 07:58:26;;;;;;;5.17;4.77;;;;;;;9.36;85.97;96218.69;4974390;28;20200;-76
2022/12/29 08:00:55;;;;;;;4.30;4.10;;;;;;;9.31;86.86;96225.63;4976280;28;20177;-77
2022/12/29 08:03:21;;;;;;;4.50;4.20;;;;;;;9.36;86.59;96208.22;4975628;28;20207;-76
2022/12/29 08:05:46;;;;;;;4.97;4.67;;;;;;;9.46;86.08;96212.88;4976725;28;20195;-74
2022/12/29 08:08:12;;;;;;;4.20;4.00;;;;;;;9.43;86.60;96216.72;4976792;28;20180;-75
2022/12/29 08:10:37;;;;;;;5.27;4.90;;;;;;;9.50;86.11;96220.00;4961338;28;20283;-74
2022/12/29 08:13:03;;;;;;;4.63;4.40;;;;;;;9.51;86.32;96223.41;4976580;28;20220;-74
2022/12/29 08:15:28;;;;;;;5.23;4.70;;;;;;;9.48;86.60;96224.66;4958241;28;20204;-75
2022/12/29 08:17:54;;;;;;;7.87;7.47;;;;;;;9.55;86.39;96235.78;4976080;28;20247;-74
2022/12/29 08:20:19;;;;;;;12.87;12.00;;;;;;;9.66;85.86;96228.94;4959428;28;20276;-74
2022/12/29 08:22:44;;;;;;;16.90;16.00;;;;;;;9.72;85.44;96235.03;4975661;28;20250;-74
2022/12/29 08:25:10;;;;;;;12.83;12.03;;;;;;;9.74;84.69;96241.66;4975289;28;20644;-75
2022/12/29 08:27:35;;;;;;;12.70;12.07;;;;;;;9.76;85.58;96244.00;4975803;28;20208;-74
2022/12/29 08:30:00;;;;;;;11.07;10.47;;;;;;;9.75;85.30;96240.59;4976157;28;20191;-74
2022/12/29 08:32:28;;;;;;;7.93;7.43;;;;;;;9.87;84.98;96235.31;4975293;28;20283;-74
2022/12/29 08:34:53;;;;;;;6.77;6.10;;;;;;;9.95;84.62;96237.56;4975791;28;20181;-75
2022/12/29 08:37:19;;;;;;;8.63;8.17;;;;;;;10.09;84.50;96232.81;4975744;28;20236;-75
2022/12/29 08:39:44;;;;;;;12.53;11.70;;;;;;;10.09;84.01;96235.41;4975737;28;20193;-74
2022/12/29 08:42:09;;;;;;;13.73;12.83;;;;;;;10.07;84.59;96235.69;4975182;28;20208;-75
2022/12/29 08:44:35;;;;;;;14.07;12.97;;;;;;;10.10;83.94;96229.16;4975954;28;20188;-74
2022/12/29 08:47:00;;;;;;;14.60;13.83;;;;;;;10.08;84.36;96226.00;4975212;28;20189;-75
2022/12/29 08:49:25;;;;;;;17.63;16.37;;;;;;;10.12;83.63;96229.72;4975406;28;20239;-75
2022/12/29 08:51:50;;;;;;;11.00;10.17;;;;;;;9.99;83.94;96226.38;4974881;28;20192;-74
2022/12/29 08:54:16;;;;;;;12.37;11.63;;;;;;;10.02;83.39;96220.69;4957230;28;20250;-74
2022/12/29 08:56:41;;;;;;;10.70;10.10;;;;;;;10.07;83.06;96219.97;4973589;28;20220;-74
2022/12/29 08:59:06;;;;;;;6.10;5.60;;;;;;;12.18;100.00;96230.00;4974033;28;20256;-72
2022/12/29 09:01:33;;;;;;;11.50;10.67;;;;;;;11.59;80.70;96227.31;4974775;28;20188;-74
2022/12/29 09:03:58;;;;;;;8.67;8.13;;;;;;;10.92;79.86;96227.56;4974636;28;20212;-74
2022/12/29 09:06:24;;;;;;;11.00;10.40;;;;;;;10.45;81.26;96232.38;4976673;28;20196;-75
2022/12/29 09:08:49;;;;;;;17.10;16.00;;;;;;;10.31;82.52;96231.09;4975939;28;20177;-75
2022/12/29 09:11:21;;;;;;;25.50;23.87;;;;;;;10.30;81.89;96240.81;4975380;28;20181;-74
2022/12/29 09:13:47;;;;;;;28.50;27.00;;;;;;;10.36;81.16;96246.91;4975054;28;20628;-75
2022/12/29 09:16:13;;;;;;;32.80;31.00;;;;;;;10.29;81.51;96244.47;4974160;28;20267;-74
2022/12/29 09:18:39;;;;;;;28.87;27.30;;;;;;;10.39;81.09;96256.91;4957583;28;20185;-74
2022/12/29 09:21:06;;;;;;;18.50;17.27;;;;;;;10.35;80.86;96259.22;4957542;28;20231;-74
2022/12/29 09:23:33;;;;;;;8.90;8.37;;;;;;;10.51;79.71;96264.69;4974785;28;20701;-74
2022/12/29 09:25:58;;;;;;;8.07;7.43;;;;;;;10.59;79.04;96259.06;4974676;28;20595;-74
2022/12/29 09:28:24;;;;;;;9.40;8.80;;;;;;;10.61;78.83;96263.03;4974486;28;20200;-73
2022/12/29 09:30:49;;;;;;;10.47;9.37;;;;;;;10.72;78.65;96259.53;4973483;28;20184;-74
2022/12/29 09:33:15;;;;;;;13.30;12.60;;;;;;;10.74;78.09;96256.66;4974430;28;20243;-74
2022/12/29 09:35:45;;;;;;;14.40;13.60;;;;;;;10.81;77.97;96267.78;4974373;28;20242;-74
2022/12/29 09:38:11;;;;;;;13.23;12.43;;;;;;;10.95;77.72;96274.28;4973716;28;20257;-76
2022/12/29 09:40:38;;;;;;;14.97;14.17;;;;;;;10.96;77.42;96273.25;4972059;28;20185;-74
2022/12/29 09:43:06;;;;;;;12.93;12.07;;;;;;;10.92;77.43;96274.75;4973827;28;20205;-76
2022/12/29 09:45:54;;;;;;;12.43;11.73;;;;;;;10.90;77.48;96274.19;4964590;28;20598;-75
2022/12/29 09:48:26;;;;;;;14.30;13.53;;;;;;;11.07;76.70;96279.41;4939945;28;20192;-74
2022/12/29 09:50:56;;;;;;;23.53;22.23;;;;;;;11.13;76.49;96260.88;4974074;28;20172;-74
2022/12/29 09:53:31;;;;;;;58.63;55.57;;;;;;;11.17;76.63;96263.81;4974165;28;20271;-74
2022/12/29 09:56:00;;;;;;;38.87;36.70;;;;;;;11.35;76.27;96260.09;4971895;28;20683;-74
2022/12/29 09:58:41;;;;;;;151.20;143.00;;;;;;;11.57;74.70;96258.28;4973422;28;20188;-73
2022/12/29 10:01:18;;;;;;;71.10;67.30;;;;;;;11.67;74.21;96256.53;4973853;28;20185;-73
2022/12/29 10:03:53;;;;;;;37.60;35.40;;;;;;;11.54;74.70;96264.00;4958460;28;20273;-72
2022/12/29 10:06:56;;;;;;;29.53;27.77;;;;;;;11.53;75.04;96251.94;4973982;28;20550;-74
2022/12/29 10:10:01;;;;;;;23.63;22.27;;;;;;;11.34;76.09;96256.69;4974049;28;20674;-74
2022/12/29 10:13:14;;;;;;;44.17;41.50;;;;;;;11.40;76.35;96254.91;4943380;28;20708;-74
2022/12/29 10:16:00;;;;;;;34.07;32.10;;;;;;;11.44;76.50;96262.03;4875465;29;20220;-73
2022/12/29 10:19:05;;;;;;;36.83;34.80;;;;;;;11.36;77.02;96259.88;4875742;29;20198;-73
2022/12/29 10:21:47;;;;;;;19.27;18.00;;;;;;;11.21;78.33;96265.69;4948111;28;20558;-73
2022/12/29 10:24:12;;;;;;;16.70;15.73;;;;;;;11.35;78.07;96266.16;4973695;28;20212;-73
2022/12/29 10:26:43;;;;;;;13.83;13.03;;;;;;;11.36;78.30;96274.81;4973727;28;20188;-73
2022/12/29 10:29:18;;;;;;;10.20;9.50;;;;;;;11.21;79.53;96268.31;4973324;28;20219;-74
2022/12/29 10:31:56;;;;;;;10.53;9.83;;;;;;;11.38;78.76;96265.66;4958078;28;20203;-74
2022/12/29 10:34:27;;;;;;;10.07;9.47;;;;;;;11.42;79.36;96265.97;4973768;28;20271;-73
2022/12/29 10:37:02;;;;;;;12.30;11.43;;;;;;;11.35;79.51;96260.91;4956241;28;20608;-73
2022/12/29 10:39:53;;;;;;;17.50;16.40;;;;;;;11.50;79.90;96266.31;4963656;28;20189;-72
2022/12/29 10:42:37;;;;;;;15.57;14.40;;;;;;;11.63;79.18;96265.97;4969308;28;20642;-73
2022/12/29 10:45:04;;;;;;;14.07;13.27;;;;;;;11.66;78.94;96262.03;4973484;28;20177;-72
2022/12/29 10:47:37;;;;;;;16.10;15.03;;;;;;;11.78;78.82;96267.97;4973328;28;20208;-72
2022/12/29 10:50:03;;;;;;;41.90;39.50;;;;;;;12.02;77.66;96265.88;4973637;28;20225;-74
2022/12/29 10:52:29;;;;;;;16.90;15.63;;;;;;;12.20;76.48;96262.88;4973465;28;20197;-73
2022/12/29 10:54:58;;;;;;;11.00;10.17;;;;;;;12.32;76.07;96257.44;4955712;28;20287;-74
2022/12/29 10:57:39;;;;;;;15.47;14.33;;;;;;;12.27;76.01;96262.66;4971422;28;20219;-73
2022/12/29 11:00:20;;;;;;;16.80;15.73;;;;;;;12.47;75.32;96255.75;4972805;28;20521;-73
2022/12/29 11:03:09;;;;;;;43.07;40.30;;;;;;;12.28;75.89;96265.06;4955992;28;20622;-74
2022/12/29 11:05:42;;;;;;;12.07;11.37;;;;;;;12.23;76.42;96264.22;4971174;28;20275;-74
2022/12/29 11:08:15;;;;;;;8.97;8.47;;;;;;;12.06;76.87;96269.56;4972368;28;20193;-74
2022/12/29 11:10:43;;;;;;;11.17;10.50;;;;;;;12.24;76.00;96271.06;4972845;28;20200;-74
2022/12/29 11:13:24;;;;;;;10.00;9.40;;;;;;;12.01;77.98;96259.03;4973298;28;20644;-73
2022/12/29 11:15:50;;;;;;;8.23;7.73;;;;;;;12.09;77.80;96258.59;4974216;28;20203;-74
2022/12/29 11:18:25;;;;;;;11.03;10.30;;;;;;;12.00;77.68;96263.47;4975717;28;20923;-74
2022/12/29 11:20:54;;;;;;;9.97;9.23;;;;;;;12.03;77.45;96270.09;4976555;28;20212;-73
2022/12/29 11:23:33;;;;;;;9.07;8.33;;;;;;;12.08;76.69;96268.28;4976785;28;20203;-74
2022/12/29 11:26:16;;;;;;;11.37;10.47;;;;;;;12.08;78.88;96278.00;4975632;28;20246;-73
2022/12/29 11:28:45;;;;;;;129.30;121.97;;;;;;;11.95;80.34;96273.94;4962360;28;20260;-73
2022/12/29 11:31:15;;;;;;;106.10;100.37;;;;;;;12.04;80.29;96263.75;4976344;28;20181;-72
2022/12/29 11:33:40;;;;;;;62.03;58.47;;;;;;;11.85;80.28;96263.34;4976579;28;20203;-72
2022/12/29 11:36:11;;;;;;;51.93;49.13;;;;;;;11.87;79.57;96269.13;4976240;28;20189;-73
2022/12/29 11:38:45;;;;;;;50.17;47.57;;;;;;;11.87;79.81;96263.09;4950360;28;20200;-73
2022/12/29 11:41:13;;;;;;;63.67;60.07;;;;;;;11.82;81.38;96278.78;4978346;28;20172;-72
2022/12/29 11:43:43;;;;;;;40.17;37.90;;;;;;;11.84;81.68;96271.44;4976674;28;20209;-74
2022/12/29 11:46:19;;;;;;;7.73;7.00;;;;;;;11.59;85.57;96266.69;4978951;28;20698;-74
2022/12/29 11:48:46;;;;;;;5.27;4.87;;;;;;;11.60;86.62;96260.38;4976328;28;20184;-74
2022/12/29 11:51:20;;;;;;;5.00;4.63;;;;;;;11.75;85.83;96265.84;4976058;28;20288;-74
2022/12/29 11:53:50;;;;;;;5.70;5.40;;;;;;;11.70;84.61;96268.41;4976011;28;20188;-73
2022/12/29 11:56:20;;;;;;;5.67;5.17;;;;;;;11.80;84.04;96268.53;4967287;28;20247;-72
2022/12/29 11:58:49;;;;;;;6.60;6.00;;;;;;;11.76;84.10;96269.28;4975334;28;20264;-74
2022/12/29 12:01:31;;;;;;;5.67;5.37;;;;;;;11.84;83.24;96267.00;4976295;28;20186;-74
2022/12/29 12:03:56;;;;;;;5.37;5.07;;;;;;;11.78;83.55;96261.94;4958150;28;20231;-73
2022/12/29 12:06:24;;;;;;;9.53;8.97;;;;;;;11.83;82.59;96260.16;4975801;28;20177;-73
2022/12/29 12:09:00;;;;;;;10.67;10.07;;;;;;;11.96;81.93;96264.22;4976306;28;20185;-73
2022/12/29 12:11:37;;;;;;;13.87;13.03;;;;;;;11.86;82.22;96258.88;4975890;28;20177;-73
2022/12/29 12:14:17;;;;;;;18.80;17.53;;;;;;;11.99;82.08;96266.34;4975559;28;20180;-74
2022/12/29 12:17:02;;;;;;;15.07;14.07;;;;;;;11.78;82.96;96262.72;4975179;28;20193;-71
2022/12/29 12:19:33;;;;;;;5.90;5.40;;;;;;;11.65;84.24;96260.44;4975753;28;20324;-74
2022/12/29 12:22:21;;;;;;;6.23;5.80;;;;;;;11.62;84.54;96255.69;4975943;28;20187;-69